sensor_id;sensor_type;location;lat;lon;timestamp;pressure;altitude;pressure_sealevel;temperature;humidity
2875;BME280;1445;52.600;13.328;2023-07-30T00:01:39;100470.38;;;17.69;nan
2875;BME280;1445;52.600;13.328;2023-07-30T00:04:05;100465.97;;;17.68;nan
2875;BME280;1445;52.600;13.328;2023-07-30T00:06:30;100469.72;;;17.60;nan
2875;BME280;1445;52.600;13.328;2023-07-30T00:08:56;100467.75;;;17.60;nan
2875;BME280;1445;52.600;13.328;2023-07-30T00:11:21;100472.41;;;17.56;nan
2875;BME280;1445;52.600;13.328;2023-07-30T00:13:47;100473.81;;;17.50;nan
2875;BME280;1445;52.600;13.328;2023-07-30T00:16:12;100467.81;;;17.48;nan
2875;BME280;1445;52.600;13.328;2023-07-30T00:18:37;100481.00;;;17.51;nan
2875;BME280;1445;52.600;13.328;2023-07-30T00:21:03;100470.22;;;17.50;nan
2875;BME280;1445;52.600;13.328;2023-07-30T00:23:28;100472.66;;;17.51;nan
2875;BME280;1445;52.600;13.328;2023-07-30T00:25:54;100465.38;;;17.47;nan
2875;BME280;1445;52.600;13.328;2023-07-30T00:28:21;100457.28;;;17.41;nan
2875;BME280;1445;52.600;13.328;2023-07-30T00:30:47;100452.03;;;17.40;nan
2875;BME280;1445;52.600;13.328;2023-07-30T00:33:15;100448.44;;;17.39;nan
2875;BME280;1445;52.600;13.328;2023-07-30T00:35:40;100445.22;;;17.37;nan
2875;BME280;1445;52.600;13.328;2023-07-30T00:38:06;100451.75;;;17.29;nan
2875;BME280;1445;52.600;13.328;2023-07-30T00:40:31;100442.94;;;17.27;nan
2875;BME280;1445;52.600;13.328;2023-07-30T00:42:56;100450.03;;;17.25;nan
2875;BME280;1445;52.600;13.328;2023-07-30T00:45:22;100441.28;;;17.26;nan
2875;BME280;1445;52.600;13.328;2023-07-30T00:47:48;100440.38;;;17.22;nan
2875;BME280;1445;52.600;13.328;2023-07-30T00:50:14;100439.84;;;17.16;nan
2875;BME280;1445;52.600;13.328;2023-07-30T00:52:40;100437.88;;;17.17;nan
2875;BME280;1445;52.600;13.328;2023-07-30T00:55:07;100431.03;;;17.14;nan
2875;BME280;1445;52.600;13.328;2023-07-30T00:57:34;100429.41;;;17.13;nan
2875;BME280;1445;52.600;13.328;2023-07-30T01:00:01;100428.84;;;17.08;nan
2875;BME280;1445;52.600;13.328;2023-07-30T01:02:29;100426.41;;;17.06;nan
2875;BME280;1445;52.600;13.328;2023-07-30T01:04:56;100426.53;;;17.10;nan
2875;BME280;1445;52.600;13.328;2023-07-30T01:07:22;100426.06;;;17.08;nan
2875;BME280;1445;52.600;13.328;2023-07-30T01:09:47;100423.88;;;17.01;nan
2875;BME280;1445;52.600;13.328;2023-07-30T01:12:13;100424.47;;;16.94;nan
2875;BME280;1445;52.600;13.328;2023-07-30T01:14:39;100426.00;;;16.92;nan
2875;BME280;1445;52.600;13.328;2023-07-30T01:17:05;100422.03;;;16.93;nan
2875;BME280;1445;52.600;13.328;2023-07-30T01:19:31;100423.66;;;16.94;nan
2875;BME280;1445;52.600;13.328;2023-07-30T01:21:57;100423.09;;;16.88;nan
2875;BME280;1445;52.600;13.328;2023-07-30T01:24:23;100441.09;;;16.79;nan
2875;BME280;1445;52.600;13.328;2023-07-30T01:26:59;100452.56;;;16.77;nan
2875;BME280;1445;52.600;13.328;2023-07-30T01:29:53;100452.13;;;16.75;nan
2875;BME280;1445;52.600;13.328;2023-07-30T01:32:25;100454.28;;;16.69;nan
2875;BME280;1445;52.600;13.328;2023-07-30T01:34:52;100459.69;;;16.75;nan
2875;BME280;1445;52.600;13.328;2023-07-30T01:37:19;100451.63;;;16.73;nan
2875;BME280;1445;52.600;13.328;2023-07-30T01:39:47;100454.56;;;16.77;nan
2875;BME280;1445;52.600;13.328;2023-07-30T01:42:13;100447.59;;;16.83;nan
2875;BME280;1445;52.600;13.328;2023-07-30T01:44:38;100451.75;;;16.77;nan
2875;BME280;1445;52.600;13.328;2023-07-30T01:47:03;100453.28;;;16.74;nan
2875;BME280;1445;52.600;13.328;2023-07-30T01:49:29;100455.72;;;16.76;nan
2875;BME280;1445;52.600;13.328;2023-07-30T01:51:54;100456.16;;;16.78;nan
2875;BME280;1445;52.600;13.328;2023-07-30T01:54:20;100456.53;;;16.76;nan
2875;BME280;1445;52.600;13.328;2023-07-30T01:56:45;100463.25;;;16.75;nan
2875;BME280;1445;52.600;13.328;2023-07-30T01:59:10;100461.16;;;16.72;nan
2875;BME280;1445;52.600;13.328;2023-07-30T02:01:36;100465.00;;;16.67;nan
2875;BME280;1445;52.600;13.328;2023-07-30T02:04:01;100463.34;;;16.66;nan
2875;BME280;1445;52.600;13.328;2023-07-30T02:06:26;100465.91;;;16.72;nan
2875;BME280;1445;52.600;13.328;2023-07-30T02:08:52;100450.59;;;16.65;nan
2875;BME280;1445;52.600;13.328;2023-07-30T02:11:17;100460.56;;;16.66;nan
2875;BME280;1445;52.600;13.328;2023-07-30T02:13:43;100463.34;;;16.66;nan
2875;BME280;1445;52.600;13.328;2023-07-30T02:16:08;100459.06;;;16.69;nan
2875;BME280;1445;52.600;13.328;2023-07-30T02:18:33;100457.19;;;16.73;nan
2875;BME280;1445;52.600;13.328;2023-07-30T02:20:59;100456.06;;;16.74;nan
2875;BME280;1445;52.600;13.328;2023-07-30T02:23:24;100460.78;;;16.74;nan
2875;BME280;1445;52.600;13.328;2023-07-30T02:25:50;100457.69;;;16.75;nan
2875;BME280;1445;52.600;13.328;2023-07-30T02:28:15;100465.34;;;16.54;nan
2875;BME280;1445;52.600;13.328;2023-07-30T02:30:40;100459.78;;;16.54;nan
2875;BME280;1445;52.600;13.328;2023-07-30T02:33:06;100464.53;;;16.53;nan
2875;BME280;1445;52.600;13.328;2023-07-30T02:35:31;100466.97;;;16.55;nan
2875;BME280;1445;52.600;13.328;2023-07-30T02:37:57;100462.78;;;16.61;nan
2875;BME280;1445;52.600;13.328;2023-07-30T02:40:22;100470.44;;;16.52;nan
2875;BME280;1445;52.600;13.328;2023-07-30T02:42:48;100470.91;;;16.54;nan
2875;BME280;1445;52.600;13.328;2023-07-30T02:45:13;100471.94;;;16.61;nan
2875;BME280;1445;52.600;13.328;2023-07-30T02:47:38;100461.25;;;16.63;nan
2875;BME280;1445;52.600;13.328;2023-07-30T02:50:05;100474.13;;;16.56;nan
2875;BME280;1445;52.600;13.328;2023-07-30T02:52:31;100476.13;;;16.43;nan
2875;BME280;1445;52.600;13.328;2023-07-30T02:54:56;100469.63;;;16.39;nan
2875;BME280;1445;52.600;13.328;2023-07-30T02:57:22;100473.56;;;16.38;nan
2875;BME280;1445;52.600;13.328;2023-07-30T02:59:47;100476.72;;;16.36;nan
2875;BME280;1445;52.600;13.328;2023-07-30T03:02:12;100480.97;;;16.34;nan
2875;BME280;1445;52.600;13.328;2023-07-30T03:04:38;100479.25;;;16.29;nan
2875;BME280;1445;52.600;13.328;2023-07-30T03:07:03;100488.63;;;16.25;nan
2875;BME280;1445;52.600;13.328;2023-07-30T03:09:29;100484.91;;;16.20;nan
2875;BME280;1445;52.600;13.328;2023-07-30T03:11:54;100483.50;;;16.14;nan
2875;BME280;1445;52.600;13.328;2023-07-30T03:14:20;100482.00;;;16.17;nan
2875;BME280;1445;52.600;13.328;2023-07-30T03:16:49;100480.50;;;16.19;nan
2875;BME280;1445;52.600;13.328;2023-07-30T03:19:14;100487.94;;;16.15;nan
2875;BME280;1445;52.600;13.328;2023-07-30T03:21:41;100484.66;;;16.13;nan
2875;BME280;1445;52.600;13.328;2023-07-30T03:24:06;100487.78;;;15.99;nan
2875;BME280;1445;52.600;13.328;2023-07-30T03:26:31;100490.44;;;15.96;nan
2875;BME280;1445;52.600;13.328;2023-07-30T03:28:57;100495.31;;;15.99;nan
2875;BME280;1445;52.600;13.328;2023-07-30T03:31:22;100501.00;;;16.03;nan
2875;BME280;1445;52.600;13.328;2023-07-30T03:33:48;100495.44;;;16.03;nan
2875;BME280;1445;52.600;13.328;2023-07-30T03:36:13;100490.00;;;16.06;nan
2875;BME280;1445;52.600;13.328;2023-07-30T03:38:39;100494.06;;;16.09;nan
2875;BME280;1445;52.600;13.328;2023-07-30T03:41:05;100499.06;;;16.15;nan
2875;BME280;1445;52.600;13.328;2023-07-30T03:43:32;100492.31;;;16.16;nan
2875;BME280;1445;52.600;13.328;2023-07-30T03:45:57;100498.34;;;16.06;nan
2875;BME280;1445;52.600;13.328;2023-07-30T03:48:23;100505.50;;;16.07;nan
2875;BME280;1445;52.600;13.328;2023-07-30T03:50:48;100498.56;;;16.01;nan
2875;BME280;1445;52.600;13.328;2023-07-30T03:53:14;100498.00;;;16.08;nan
2875;BME280;1445;52.600;13.328;2023-07-30T03:55:40;100497.06;;;16.16;nan
2875;BME280;1445;52.600;13.328;2023-07-30T03:58:06;100503.22;;;16.21;nan
2875;BME280;1445;52.600;13.328;2023-07-30T04:00:31;100499.97;;;16.32;nan
2875;BME280;1445;52.600;13.328;2023-07-30T04:02:57;100502.75;;;16.32;nan
2875;BME280;1445;52.600;13.328;2023-07-30T04:05:23;100498.84;;;16.45;nan
2875;BME280;1445;52.600;13.328;2023-07-30T04:07:48;100502.09;;;16.47;nan
2875;BME280;1445;52.600;13.328;2023-07-30T04:10:14;100498.38;;;16.67;nan
2875;BME280;1445;52.600;13.328;2023-07-30T04:12:39;100499.63;;;16.70;nan
2875;BME280;1445;52.600;13.328;2023-07-30T04:15:05;100499.44;;;16.75;nan
2875;BME280;1445;52.600;13.328;2023-07-30T04:17:31;100488.44;;;16.79;nan
2875;BME280;1445;52.600;13.328;2023-07-30T04:19:56;100486.31;;;16.88;nan
2875;BME280;1445;52.600;13.328;2023-07-30T04:22:21;100486.94;;;16.81;nan
2875;BME280;1445;52.600;13.328;2023-07-30T04:24:47;100494.22;;;16.86;nan
2875;BME280;1445;52.600;13.328;2023-07-30T04:27:12;100498.75;;;16.78;nan
2875;BME280;1445;52.600;13.328;2023-07-30T04:29:38;100487.84;;;16.85;nan
2875;BME280;1445;52.600;13.328;2023-07-30T04:32:03;100493.41;;;16.85;nan
2875;BME280;1445;52.600;13.328;2023-07-30T04:34:29;100493.63;;;16.80;nan
2875;BME280;1445;52.600;13.328;2023-07-30T04:36:54;100496.53;;;16.84;nan
2875;BME280;1445;52.600;13.328;2023-07-30T04:39:20;100496.66;;;16.75;nan
2875;BME280;1445;52.600;13.328;2023-07-30T04:41:45;100497.09;;;16.77;nan
2875;BME280;1445;52.600;13.328;2023-07-30T04:44:10;100495.94;;;16.90;nan
2875;BME280;1445;52.600;13.328;2023-07-30T04:46:36;100514.63;;;16.78;nan
2875;BME280;1445;52.600;13.328;2023-07-30T04:49:02;100513.72;;;16.86;nan
2875;BME280;1445;52.600;13.328;2023-07-30T04:51:29;100517.63;;;16.73;nan
2875;BME280;1445;52.600;13.328;2023-07-30T04:53:54;100508.00;;;16.94;nan
2875;BME280;1445;52.600;13.328;2023-07-30T04:56:20;100500.44;;;16.95;nan
2875;BME280;1445;52.600;13.328;2023-07-30T04:58:45;100500.13;;;16.97;nan
2875;BME280;1445;52.600;13.328;2023-07-30T05:01:11;100493.38;;;17.10;nan
2875;BME280;1445;52.600;13.328;2023-07-30T05:03:36;100493.47;;;17.01;nan
2875;BME280;1445;52.600;13.328;2023-07-30T05:06:01;100493.59;;;17.05;nan
2875;BME280;1445;52.600;13.328;2023-07-30T05:08:27;100493.47;;;17.01;nan
2875;BME280;1445;52.600;13.328;2023-07-30T05:10:53;100488.13;;;17.08;nan
2875;BME280;1445;52.600;13.328;2023-07-30T05:13:18;100480.97;;;17.35;nan
2875;BME280;1445;52.600;13.328;2023-07-30T05:15:43;100479.91;;;17.40;nan
2875;BME280;1445;52.600;13.328;2023-07-30T05:18:09;100468.44;;;17.57;nan
2875;BME280;1445;52.600;13.328;2023-07-30T05:20:34;100462.06;;;17.57;nan
2875;BME280;1445;52.600;13.328;2023-07-30T05:23:00;100456.66;;;17.76;nan
2875;BME280;1445;52.600;13.328;2023-07-30T05:25:25;100437.16;;;17.92;nan
2875;BME280;1445;52.600;13.328;2023-07-30T05:27:50;100431.31;;;17.97;nan
2875;BME280;1445;52.600;13.328;2023-07-30T05:30:16;100423.03;;;18.17;nan
2875;BME280;1445;52.600;13.328;2023-07-30T05:32:41;100425.00;;;18.16;nan
2875;BME280;1445;52.600;13.328;2023-07-30T05:35:07;100413.66;;;18.25;nan
2875;BME280;1445;52.600;13.328;2023-07-30T05:37:32;100406.63;;;18.31;nan
2875;BME280;1445;52.600;13.328;2023-07-30T05:39:58;100402.31;;;18.33;nan
2875;BME280;1445;52.600;13.328;2023-07-30T05:42:23;100390.53;;;18.24;nan
2875;BME280;1445;52.600;13.328;2023-07-30T05:44:48;100393.59;;;18.19;nan
2875;BME280;1445;52.600;13.328;2023-07-30T05:47:14;100390.53;;;18.24;nan
2875;BME280;1445;52.600;13.328;2023-07-30T05:49:39;100390.28;;;18.13;nan
2875;BME280;1445;52.600;13.328;2023-07-30T05:52:05;100397.66;;;18.22;nan
2875;BME280;1445;52.600;13.328;2023-07-30T05:54:31;100393.94;;;18.33;nan
2875;BME280;1445;52.600;13.328;2023-07-30T05:56:56;100400.63;;;18.29;nan
2875;BME280;1445;52.600;13.328;2023-07-30T05:59:21;100402.09;;;18.42;nan
2875;BME280;1445;52.600;13.328;2023-07-30T06:01:47;100397.94;;;18.52;nan
2875;BME280;1445;52.600;13.328;2023-07-30T06:04:12;100401.38;;;18.45;nan
2875;BME280;1445;52.600;13.328;2023-07-30T06:06:37;100392.38;;;18.52;nan
2875;BME280;1445;52.600;13.328;2023-07-30T06:09:03;100395.78;;;18.61;nan
2875;BME280;1445;52.600;13.328;2023-07-30T06:11:28;100396.63;;;18.81;nan
2875;BME280;1445;52.600;13.328;2023-07-30T06:13:54;100385.69;;;18.56;nan
2875;BME280;1445;52.600;13.328;2023-07-30T06:16:19;100396.94;;;18.60;nan
2875;BME280;1445;52.600;13.328;2023-07-30T06:18:47;100404.28;;;18.84;nan
2875;BME280;1445;52.600;13.328;2023-07-30T06:21:13;100398.47;;;18.93;nan
2875;BME280;1445;52.600;13.328;2023-07-30T06:23:38;100392.59;;;19.17;nan
2875;BME280;1445;52.600;13.328;2023-07-30T06:26:04;100379.38;;;19.57;nan
2875;BME280;1445;52.600;13.328;2023-07-30T06:28:29;100379.41;;;19.79;nan
2875;BME280;1445;52.600;13.328;2023-07-30T06:30:54;100347.38;;;19.54;nan
2875;BME280;1445;52.600;13.328;2023-07-30T06:33:20;100350.03;;;19.66;nan
2875;BME280;1445;52.600;13.328;2023-07-30T06:35:45;100342.56;;;19.74;nan
2875;BME280;1445;52.600;13.328;2023-07-30T06:38:10;100339.25;;;19.45;nan
2875;BME280;1445;52.600;13.328;2023-07-30T06:40:36;100340.63;;;19.55;nan
2875;BME280;1445;52.600;13.328;2023-07-30T06:43:01;100350.09;;;19.27;nan
2875;BME280;1445;52.600;13.328;2023-07-30T06:45:27;100346.97;;;19.33;nan
2875;BME280;1445;52.600;13.328;2023-07-30T06:47:53;100357.66;;;19.27;nan
2875;BME280;1445;52.600;13.328;2023-07-30T06:50:18;100367.41;;;19.37;nan
2875;BME280;1445;52.600;13.328;2023-07-30T06:52:43;100362.47;;;19.49;nan
2875;BME280;1445;52.600;13.328;2023-07-30T06:55:09;100356.88;;;19.49;nan
2875;BME280;1445;52.600;13.328;2023-07-30T06:57:34;100349.50;;;19.61;nan
2875;BME280;1445;52.600;13.328;2023-07-30T07:00:00;100359.56;;;19.65;nan
2875;BME280;1445;52.600;13.328;2023-07-30T07:02:26;100345.50;;;19.62;nan
2875;BME280;1445;52.600;13.328;2023-07-30T07:04:51;100351.00;;;19.77;nan
2875;BME280;1445;52.600;13.328;2023-07-30T07:07:17;100354.69;;;19.39;nan
2875;BME280;1445;52.600;13.328;2023-07-30T07:09:42;100362.47;;;19.49;nan
2875;BME280;1445;52.600;13.328;2023-07-30T07:12:08;100361.34;;;19.54;nan
2875;BME280;1445;52.600;13.328;2023-07-30T07:14:33;100378.78;;;19.67;nan
2875;BME280;1445;52.600;13.328;2023-07-30T07:16:59;100380.72;;;19.63;nan
2875;BME280;1445;52.600;13.328;2023-07-30T07:19:24;100379.50;;;19.83;nan
2875;BME280;1445;52.600;13.328;2023-07-30T07:21:49;100377.44;;;19.80;nan
2875;BME280;1445;52.600;13.328;2023-07-30T07:24:16;100371.28;;;19.71;nan
2875;BME280;1445;52.600;13.328;2023-07-30T07:26:41;100376.69;;;19.83;nan
2875;BME280;1445;52.600;13.328;2023-07-30T07:29:06;100376.06;;;19.70;nan
2875;BME280;1445;52.600;13.328;2023-07-30T07:31:32;100372.06;;;19.71;nan
2875;BME280;1445;52.600;13.328;2023-07-30T07:33:57;100381.22;;;19.91;nan
2875;BME280;1445;52.600;13.328;2023-07-30T07:36:23;100377.72;;;19.98;nan
2875;BME280;1445;52.600;13.328;2023-07-30T07:38:48;100387.34;;;20.23;nan
2875;BME280;1445;52.600;13.328;2023-07-30T07:41:15;100380.34;;;20.37;nan
2875;BME280;1445;52.600;13.328;2023-07-30T07:43:41;100377.56;;;20.14;nan
2875;BME280;1445;52.600;13.328;2023-07-30T07:46:07;100371.13;;;20.10;nan
2875;BME280;1445;52.600;13.328;2023-07-30T07:48:41;100370.44;;;20.16;nan
2875;BME280;1445;52.600;13.328;2023-07-30T07:51:08;100375.56;;;20.14;nan
2875;BME280;1445;52.600;13.328;2023-07-30T07:53:34;100363.69;;;20.21;nan
2875;BME280;1445;52.600;13.328;2023-07-30T07:56:00;100372.47;;;20.19;nan
2875;BME280;1445;52.600;13.328;2023-07-30T07:58:26;100368.06;;;20.18;nan
2875;BME280;1445;52.600;13.328;2023-07-30T08:00:54;100376.34;;;20.38;nan
2875;BME280;1445;52.600;13.328;2023-07-30T08:03:20;100370.22;;;20.55;nan
2875;BME280;1445;52.600;13.328;2023-07-30T08:05:46;100373.78;;;20.52;nan
2875;BME280;1445;52.600;13.328;2023-07-30T08:08:11;100373.38;;;20.50;nan
2875;BME280;1445;52.600;13.328;2023-07-30T08:10:40;100368.34;;;20.36;nan
2875;BME280;1445;52.600;13.328;2023-07-30T08:13:11;100376.69;;;20.59;nan
2875;BME280;1445;52.600;13.328;2023-07-30T08:15:37;100365.78;;;20.51;nan
2875;BME280;1445;52.600;13.328;2023-07-30T08:18:02;100364.00;;;20.42;nan
2875;BME280;1445;52.600;13.328;2023-07-30T08:20:27;100381.84;;;20.31;nan
2875;BME280;1445;52.600;13.328;2023-07-30T08:22:53;100359.22;;;20.16;nan
2875;BME280;1445;52.600;13.328;2023-07-30T08:25:18;100361.84;;;20.32;nan
2875;BME280;1445;52.600;13.328;2023-07-30T08:27:44;100338.28;;;20.60;nan
2875;BME280;1445;52.600;13.328;2023-07-30T08:30:10;100331.56;;;20.98;nan
2875;BME280;1445;52.600;13.328;2023-07-30T08:32:35;100325.06;;;20.90;nan
2875;BME280;1445;52.600;13.328;2023-07-30T08:35:01;100318.34;;;20.98;nan
2875;BME280;1445;52.600;13.328;2023-07-30T08:37:26;100295.16;;;21.02;nan
2875;BME280;1445;52.600;13.328;2023-07-30T08:39:52;100297.63;;;21.07;nan
2875;BME280;1445;52.600;13.328;2023-07-30T08:42:18;100300.38;;;21.00;nan
2875;BME280;1445;52.600;13.328;2023-07-30T08:44:43;100296.16;;;20.83;nan
2875;BME280;1445;52.600;13.328;2023-07-30T08:47:10;100293.56;;;21.01;nan
2875;BME280;1445;52.600;13.328;2023-07-30T08:49:35;100291.19;;;21.40;nan
2875;BME280;1445;52.600;13.328;2023-07-30T08:52:02;100301.75;;;21.57;nan
2875;BME280;1445;52.600;13.328;2023-07-30T08:54:30;100293.63;;;21.41;nan
2875;BME280;1445;52.600;13.328;2023-07-30T08:56:57;100296.13;;;21.54;nan
2875;BME280;1445;52.600;13.328;2023-07-30T08:59:24;100288.25;;;21.29;nan
2875;BME280;1445;52.600;13.328;2023-07-30T09:01:53;100280.41;;;21.42;nan
2875;BME280;1445;52.600;13.328;2023-07-30T09:04:19;100273.34;;;21.59;nan
2875;BME280;1445;52.600;13.328;2023-07-30T09:06:49;100269.59;;;21.96;nan
2875;BME280;1445;52.600;13.328;2023-07-30T09:09:15;100280.06;;;22.02;nan
2875;BME280;1445;52.600;13.328;2023-07-30T09:11:40;100282.09;;;22.05;nan
2875;BME280;1445;52.600;13.328;2023-07-30T09:14:06;100285.78;;;22.17;nan
2875;BME280;1445;52.600;13.328;2023-07-30T09:16:32;100278.72;;;21.82;nan
2875;BME280;1445;52.600;13.328;2023-07-30T09:18:57;100297.88;;;21.73;nan
2875;BME280;1445;52.600;13.328;2023-07-30T09:21:33;100284.34;;;21.85;nan
2875;BME280;1445;52.600;13.328;2023-07-30T09:24:02;100283.53;;;21.85;nan
2875;BME280;1445;52.600;13.328;2023-07-30T09:26:45;100279.88;;;21.77;nan
2875;BME280;1445;52.600;13.328;2023-07-30T09:29:10;100279.13;;;21.84;nan
2875;BME280;1445;52.600;13.328;2023-07-30T09:31:49;100283.72;;;22.10;nan
2875;BME280;1445;52.600;13.328;2023-07-30T09:34:19;100277.38;;;22.17;nan
2875;BME280;1445;52.600;13.328;2023-07-30T09:36:46;100282.13;;;22.12;nan
2875;BME280;1445;52.600;13.328;2023-07-30T09:39:25;100283.81;;;22.24;nan
2875;BME280;1445;52.600;13.328;2023-07-30T09:41:59;100273.06;;;22.37;nan
2875;BME280;1445;52.600;13.328;2023-07-30T09:44:25;100278.09;;;22.10;nan
2875;BME280;1445;52.600;13.328;2023-07-30T09:46:51;100277.53;;;22.45;nan
2875;BME280;1445;52.600;13.328;2023-07-30T09:49:17;100282.88;;;22.06;nan
2875;BME280;1445;52.600;13.328;2023-07-30T09:51:43;100284.00;;;21.90;nan
2875;BME280;1445;52.600;13.328;2023-07-30T09:54:11;100290.66;;;21.72;nan
2875;BME280;1445;52.600;13.328;2023-07-30T09:56:38;100302.28;;;21.70;nan
2875;BME280;1445;52.600;13.328;2023-07-30T09:59:04;100294.66;;;21.71;nan
2875;BME280;1445;52.600;13.328;2023-07-30T10:01:31;100296.53;;;22.11;nan
2875;BME280;1445;52.600;13.328;2023-07-30T10:03:57;100291.03;;;22.22;nan
2875;BME280;1445;52.600;13.328;2023-07-30T10:06:29;100296.19;;;22.89;nan
2875;BME280;1445;52.600;13.328;2023-07-30T10:08:58;100279.00;;;23.26;nan
2875;BME280;1445;52.600;13.328;2023-07-30T10:11:25;100285.09;;;23.71;nan
2875;BME280;1445;52.600;13.328;2023-07-30T10:13:52;100275.44;;;24.01;nan
2875;BME280;1445;52.600;13.328;2023-07-30T10:16:25;100267.34;;;24.10;nan
2875;BME280;1445;52.600;13.328;2023-07-30T10:18:55;100273.81;;;24.00;nan
2875;BME280;1445;52.600;13.328;2023-07-30T10:21:24;100275.00;;;24.10;nan
2875;BME280;1445;52.600;13.328;2023-07-30T10:26:35;100266.59;;;23.67;nan
2875;BME280;1445;52.600;13.328;2023-07-30T10:29:18;100277.03;;;23.45;nan
2875;BME280;1445;52.600;13.328;2023-07-30T10:31:57;100275.81;;;23.46;nan
2875;BME280;1445;52.600;13.328;2023-07-30T10:34:26;100282.63;;;23.30;nan
2875;BME280;1445;52.600;13.328;2023-07-30T10:36:54;100276.56;;;23.07;nan
2875;BME280;1445;52.600;13.328;2023-07-30T10:39:25;100275.00;;;23.13;nan
2875;BME280;1445;52.600;13.328;2023-07-30T10:41:54;100266.59;;;23.42;nan
2875;BME280;1445;52.600;13.328;2023-07-30T10:44:28;100271.00;;;23.61;nan
2875;BME280;1445;52.600;13.328;2023-07-30T10:46:58;100269.78;;;23.44;nan
2875;BME280;1445;52.600;13.328;2023-07-30T10:49:24;100270.44;;;22.76;nan
2875;BME280;1445;52.600;13.328;2023-07-30T10:51:55;100274.88;;;22.88;nan
2875;BME280;1445;52.600;13.328;2023-07-30T10:54:20;100275.28;;;22.83;nan
2875;BME280;1445;52.600;13.328;2023-07-30T10:56:46;100281.72;;;22.91;nan
2875;BME280;1445;52.600;13.328;2023-07-30T10:59:12;100286.50;;;22.79;nan
2875;BME280;1445;52.600;13.328;2023-07-30T11:01:40;100288.09;;;22.80;nan
2875;BME280;1445;52.600;13.328;2023-07-30T11:04:19;100291.25;;;22.65;nan
2875;BME280;1445;52.600;13.328;2023-07-30T11:06:50;100289.34;;;22.86;nan
2875;BME280;1445;52.600;13.328;2023-07-30T11:09:27;100285.78;;;23.00;nan
2875;BME280;1445;52.600;13.328;2023-07-30T11:11:55;100281.03;;;23.29;nan
2875;BME280;1445;52.600;13.328;2023-07-30T11:14:23;100269.00;;;23.72;nan
2875;BME280;1445;52.600;13.328;2023-07-30T11:16:56;100268.19;;;23.57;nan
2875;BME280;1445;52.600;13.328;2023-07-30T11:19:24;100281.00;;;23.19;nan
2875;BME280;1445;52.600;13.328;2023-07-30T11:21:51;100285.72;;;22.86;nan
2875;BME280;1445;52.600;13.328;2023-07-30T11:24:17;100275.41;;;23.29;nan
2875;BME280;1445;52.600;13.328;2023-07-30T11:26:43;100269.31;;;24.31;nan
2875;BME280;1445;52.600;13.328;2023-07-30T11:29:19;100266.56;;;23.95;nan
2875;BME280;1445;52.600;13.328;2023-07-30T11:31:46;100282.16;;;24.36;nan
2875;BME280;1445;52.600;13.328;2023-07-30T11:34:13;100267.28;;;24.32;nan
2875;BME280;1445;52.600;13.328;2023-07-30T11:36:40;100257.16;;;25.33;nan
2875;BME280;1445;52.600;13.328;2023-07-30T11:39:06;100267.53;;;24.76;nan
2875;BME280;1445;52.600;13.328;2023-07-30T11:41:32;100266.72;;;25.50;nan
2875;BME280;1445;52.600;13.328;2023-07-30T11:43:58;100250.69;;;26.26;nan
2875;BME280;1445;52.600;13.328;2023-07-30T11:46:24;100264.06;;;25.77;nan
2875;BME280;1445;52.600;13.328;2023-07-30T11:48:51;100261.84;;;24.87;nan
2875;BME280;1445;52.600;13.328;2023-07-30T11:51:28;100255.78;;;26.00;nan
2875;BME280;1445;52.600;13.328;2023-07-30T11:54:00;100246.47;;;26.03;nan
2875;BME280;1445;52.600;13.328;2023-07-30T11:56:33;100251.38;;;25.96;nan
2875;BME280;1445;52.600;13.328;2023-07-30T11:59:01;100267.00;;;25.62;nan
2875;BME280;1445;52.600;13.328;2023-07-30T12:01:32;100254.94;;;26.03;nan
2875;BME280;1445;52.600;13.328;2023-07-30T12:04:00;100260.97;;;26.39;nan
2875;BME280;1445;52.600;13.328;2023-07-30T12:09:10;100259.31;;;25.66;nan
2875;BME280;1445;52.600;13.328;2023-07-30T12:11:44;100254.34;;;25.33;nan
2875;BME280;1445;52.600;13.328;2023-07-30T12:14:09;100264.22;;;25.55;nan
2875;BME280;1445;52.600;13.328;2023-07-30T12:16:35;100263.34;;;26.45;nan
2875;BME280;1445;52.600;13.328;2023-07-30T12:19:00;100253.81;;;25.93;nan
2875;BME280;1445;52.600;13.328;2023-07-30T12:21:25;100268.78;;;25.42;nan
2875;BME280;1445;52.600;13.328;2023-07-30T12:23:51;100259.38;;;25.00;nan
2875;BME280;1445;52.600;13.328;2023-07-30T12:26:16;100263.44;;;25.51;nan
2875;BME280;1445;52.600;13.328;2023-07-30T12:28:42;100257.88;;;25.92;nan
2875;BME280;1445;52.600;13.328;2023-07-30T12:31:07;100254.31;;;25.85;nan
2875;BME280;1445;52.600;13.328;2023-07-30T12:33:32;100260.25;;;25.49;nan
2875;BME280;1445;52.600;13.328;2023-07-30T12:35:58;100268.22;;;24.98;nan
2875;BME280;1445;52.600;13.328;2023-07-30T12:38:23;100260.19;;;25.56;nan
2875;BME280;1445;52.600;13.328;2023-07-30T12:40:49;100267.06;;;26.00;nan
2875;BME280;1445;52.600;13.328;2023-07-30T12:43:16;100283.53;;;25.01;nan
2875;BME280;1445;52.600;13.328;2023-07-30T12:45:41;100273.13;;;24.87;nan
2875;BME280;1445;52.600;13.328;2023-07-30T12:48:07;100256.13;;;25.61;nan
2875;BME280;1445;52.600;13.328;2023-07-30T12:50:33;100263.25;;;25.73;nan
2875;BME280;1445;52.600;13.328;2023-07-30T12:52:58;100245.25;;;25.00;nan
2875;BME280;1445;52.600;13.328;2023-07-30T12:55:23;100251.13;;;25.34;nan
2875;BME280;1445;52.600;13.328;2023-07-30T12:57:49;100243.69;;;24.92;nan
2875;BME280;1445;52.600;13.328;2023-07-30T13:00:15;100275.75;;;24.32;nan
2875;BME280;1445;52.600;13.328;2023-07-30T13:02:41;100252.47;;;24.06;nan
2875;BME280;1445;52.600;13.328;2023-07-30T13:05:07;100258.84;;;24.32;nan
2875;BME280;1445;52.600;13.328;2023-07-30T13:07:32;100252.47;;;24.10;nan
2875;BME280;1445;52.600;13.328;2023-07-30T13:10:05;100265.75;;;24.09;nan
2875;BME280;1445;52.600;13.328;2023-07-30T13:12:31;100245.16;;;24.44;nan
2875;BME280;1445;52.600;13.328;2023-07-30T13:14:57;100239.91;;;24.36;nan
2875;BME280;1445;52.600;13.328;2023-07-30T13:17:22;100239.22;;;23.99;nan
2875;BME280;1445;52.600;13.328;2023-07-30T13:19:47;100231.88;;;24.34;nan
2875;BME280;1445;52.600;13.328;2023-07-30T13:22:13;100252.28;;;24.67;nan
2875;BME280;1445;52.600;13.328;2023-07-30T13:24:38;100226.72;;;24.99;nan